createdAt,value
2023-04-15T00:02:09.363Z,46.1
2023-04-15T00:07:27.412Z,46.2
2023-04-15T00:12:45.845Z,46.1
2023-04-15T00:18:04.199Z,46.2
2023-04-15T00:23:22.562Z,45.9
2023-04-15T00:28:40.778Z,46.8
2023-04-15T00:33:59.089Z,47
2023-04-15T00:39:17.619Z,46.8
2023-04-15T00:44:35.808Z,46.8
2023-04-15T00:49:53.741Z,46.5
2023-04-15T00:55:11.933Z,46.6
2023-04-15T01:00:30.159Z,46.3
2023-04-15T01:05:48.443Z,47.2
2023-04-15T01:11:06.966Z,47.6
2023-04-15T01:16:25.461Z,47.2
2023-04-15T01:21:43.857Z,46.9
2023-04-15T01:27:02.381Z,46.9
2023-04-15T01:32:20.864Z,47.7
2023-04-15T01:37:39.294Z,47
2023-04-15T01:42:57.668Z,47.1
2023-04-15T01:48:15.871Z,47.4
2023-04-15T01:53:34.242Z,47.8
2023-04-15T01:58:52.563Z,47.1
2023-04-15T02:04:11.153Z,47.3
2023-04-15T02:09:30.032Z,48
2023-04-15T02:14:48.570Z,47.2
2023-04-15T02:20:06.623Z,48.2
2023-04-15T02:25:24.786Z,47.7
2023-04-15T02:30:43.149Z,48.1
2023-04-15T02:36:01.413Z,47.7
2023-04-15T02:41:19.723Z,48.2
2023-04-15T02:46:38.064Z,47.9
2023-04-15T02:51:56.591Z,48
2023-04-15T02:57:14.541Z,48.1
2023-04-15T03:02:33.028Z,48.5
2023-04-15T03:07:51.287Z,48
2023-04-15T03:13:09.785Z,47.7
2023-04-15T03:18:27.910Z,47.3
2023-04-15T03:23:46.162Z,47.7
2023-04-15T03:29:04.701Z,48.1
2023-04-15T03:34:23.025Z,47.3
2023-04-15T03:39:41.459Z,48
2023-04-15T03:44:59.795Z,47.1
2023-04-15T03:50:17.924Z,47.8
2023-04-15T03:55:36.108Z,48
2023-04-15T04:00:54.417Z,48
2023-04-15T04:06:12.937Z,47
2023-04-15T04:11:31.149Z,47.1
2023-04-15T04:16:49.698Z,47.2
2023-04-15T04:22:08.044Z,47.8
2023-04-15T04:27:26.406Z,47
2023-04-15T04:32:44.647Z,47.9
2023-04-15T04:38:03.093Z,47.7
2023-04-15T04:43:21.534Z,48.1
2023-04-15T04:48:39.840Z,47.6
2023-04-15T05:49:22.611Z,48.1
2023-04-15T05:54:41.286Z,48
2023-04-15T06:16:40.406Z,47.7
2023-04-15T06:22:11.554Z,47.9
2023-04-15T11:46:17.096Z,40.2
2023-04-15T11:51:36.175Z,38.5
2023-04-15T12:02:26.348Z,37.5
2023-04-15T12:08:05.527Z,38.6
2023-04-15T12:13:24.013Z,38.9
2023-04-15T12:18:51.427Z,39.1
2023-04-15T12:24:10.549Z,39
2023-04-15T12:35:04.999Z,39
2023-04-15T12:40:23.684Z,39.3
2023-04-15T12:45:42.281Z,37
2023-04-15T12:51:00.661Z,38.4
2023-04-15T12:56:18.774Z,38.6
2023-04-15T13:01:37.404Z,37.4
2023-04-15T13:06:55.811Z,38.2
2023-04-15T13:12:14.193Z,39.4
2023-04-15T13:17:32.911Z,35.1
2023-04-15T13:22:51.152Z,30.3
2023-04-15T13:28:09.494Z,29.4
2023-04-15T13:33:27.627Z,28.1
2023-04-15T13:38:46.775Z,27.8
2023-04-15T13:44:06.928Z,29.8
2023-04-15T13:49:25.656Z,32.4
2023-04-15T13:54:44.060Z,31
2023-04-15T14:00:02.383Z,30.2
2023-04-15T14:05:20.752Z,34.7
2023-04-15T14:10:38.710Z,35.9
2023-04-15T14:15:57.139Z,36.5
2023-04-15T14:21:15.628Z,32.6
2023-04-15T14:26:34.276Z,26.9
2023-04-15T14:32:13.762Z,32.2
2023-04-15T14:37:32.576Z,32.3
2023-04-15T14:42:50.954Z,33.5
2023-04-15T14:48:09.283Z,33.2
2023-04-15T14:53:27.703Z,31.4
2023-04-15T14:58:46.093Z,33.8
2023-04-15T15:04:04.457Z,30.8
2023-04-15T15:09:08.042Z,31.9
2023-04-15T15:14:26.369Z,29.6
2023-04-15T15:19:44.991Z,28.7
2023-04-15T15:25:03.498Z,28
2023-04-15T15:30:23.213Z,28.5
2023-04-15T15:35:42.131Z,31.7
2023-04-15T15:41:00.701Z,34
2023-04-15T15:46:19.187Z,35
2023-04-15T15:51:37.352Z,35.1
2023-04-15T15:56:55.888Z,36.5
2023-04-15T16:02:14.706Z,36.5
2023-04-15T16:07:33.036Z,37
2023-04-15T16:12:51.160Z,37.5
2023-04-15T16:18:09.594Z,37.2
2023-04-15T16:23:28.440Z,37.8
2023-04-15T16:28:46.845Z,39
2023-04-15T16:34:05.485Z,39.6
2023-04-15T16:39:23.824Z,39.5
2023-04-15T16:44:42.439Z,40.1
2023-04-15T16:50:00.859Z,30.9
2023-04-15T16:55:19.128Z,29.8
2023-04-15T17:00:37.698Z,29.1
2023-04-15T17:05:56.236Z,28.9
2023-04-15T17:11:14.551Z,28.4
2023-04-15T17:16:32.864Z,28
2023-04-15T17:21:54.894Z,29.1
2023-04-15T17:27:13.248Z,29.2
2023-04-15T17:32:31.723Z,30.3
2023-04-15T17:37:50.144Z,32.8
2023-04-15T17:43:08.642Z,33.8
2023-04-15T17:48:26.774Z,34.2
2023-04-15T17:53:45.405Z,34.7
2023-04-15T17:59:03.354Z,34.7
2023-04-15T18:04:26.952Z,35.9
2023-04-15T18:09:45.675Z,36.8
2023-04-15T18:15:04.274Z,32.7
2023-04-15T18:20:22.849Z,32.8
2023-04-15T18:25:41.302Z,31.1
2023-04-15T18:30:59.463Z,31.7
2023-04-15T18:36:17.646Z,33.8
2023-04-15T18:41:35.939Z,35.4
2023-04-15T18:46:54.541Z,35.7
2023-04-15T18:52:13.064Z,35.2
2023-04-15T18:57:37.877Z,36.2
2023-04-15T19:02:56.726Z,37.1
2023-04-15T19:08:14.818Z,36.8
2023-04-15T19:13:33.216Z,37.3
2023-04-15T19:18:51.605Z,36.4
2023-04-15T19:24:09.899Z,35.8
2023-04-15T19:29:28.135Z,37.1
2023-04-15T19:34:46.321Z,36.6
2023-04-15T19:40:04.819Z,36.6
2023-04-15T19:45:23.369Z,33.5
2023-04-15T19:50:41.883Z,35.3
2023-04-15T19:56:00.076Z,36
2023-04-15T20:01:18.753Z,36.1
2023-04-15T20:06:36.953Z,36.3
2023-04-15T20:12:53.612Z,36.9
2023-04-15T20:18:11.948Z,38.5
2023-04-15T20:23:30.180Z,38.8
2023-04-15T20:28:48.545Z,38.5
2023-04-15T20:34:07.031Z,39.1
2023-04-15T20:39:25.860Z,38.9
2023-04-15T20:44:44.092Z,38.2
2023-04-15T20:50:02.409Z,38.7
2023-04-15T20:55:20.877Z,39.5
2023-04-15T21:00:39.183Z,39.5
2023-04-15T21:05:57.490Z,39.7
2023-04-15T21:16:58.487Z,41
2023-04-15T21:22:16.979Z,40.9
2023-04-15T21:27:35.317Z,40.9
2023-04-15T21:32:53.937Z,40.9
2023-04-15T21:38:13.106Z,41.1
2023-04-15T21:43:31.247Z,39.3
2023-04-15T21:48:49.532Z,40.6
2023-04-15T21:54:07.916Z,40.6
2023-04-15T21:59:25.922Z,40.9
2023-04-15T22:04:44.449Z,40.3
2023-04-15T22:10:02.486Z,40.8
2023-04-15T22:15:20.823Z,40.2
2023-04-15T22:20:39.033Z,40.5
2023-04-15T22:25:57.217Z,40.2
2023-04-15T22:31:15.729Z,41.2
2023-04-15T22:36:33.756Z,40.9
2023-04-15T22:41:52.288Z,41.5
2023-04-15T22:47:10.852Z,40.6
2023-04-15T22:52:31.831Z,41.5
2023-04-15T22:57:50.233Z,42.1
2023-04-15T23:03:08.991Z,41.1
2023-04-15T23:08:27.011Z,41.4
2023-04-15T23:13:45.422Z,42.7
2023-04-15T23:19:03.420Z,41.9
2023-04-15T23:24:21.586Z,41.9
2023-04-15T23:29:40.065Z,41.9
2023-04-15T23:34:58.227Z,41.5
2023-04-15T23:40:17.666Z,42.7
2023-04-15T23:45:35.917Z,42
2023-04-15T23:50:54.231Z,42.6
2023-04-15T23:56:12.601Z,41.9
